sensor_id;sensor_type;location;lat;lon;timestamp;P1;durP1;ratioP1;P2;durP2;ratioP2
14116;SDS011;7137;51.436;6.544;2023-02-04T00:00:11;21.03;;;4.37;;
14116;SDS011;7137;51.436;6.544;2023-02-04T00:03:15;16.57;;;3.70;;
14116;SDS011;7137;51.436;6.544;2023-02-04T00:06:17;17.73;;;4.27;;
14116;SDS011;7137;51.436;6.544;2023-02-04T00:09:20;17.63;;;4.07;;
14116;SDS011;7137;51.436;6.544;2023-02-04T00:12:22;17.73;;;4.27;;
14116;SDS011;7137;51.436;6.544;2023-02-04T00:15:24;12.40;;;3.67;;
14116;SDS011;7137;51.436;6.544;2023-02-04T00:18:26;15.90;;;3.57;;
14116;SDS011;7137;51.436;6.544;2023-02-04T00:21:28;17.03;;;3.70;;
14116;SDS011;7137;51.436;6.544;2023-02-04T00:24:31;18.60;;;4.60;;
14116;SDS011;7137;51.436;6.544;2023-02-04T00:27:33;15.40;;;4.03;;
14116;SDS011;7137;51.436;6.544;2023-02-04T00:30:34;18.13;;;4.27;;
14116;SDS011;7137;51.436;6.544;2023-02-04T00:33:36;14.67;;;3.70;;
14116;SDS011;7137;51.436;6.544;2023-02-04T00:36:37;19.03;;;4.23;;
14116;SDS011;7137;51.436;6.544;2023-02-04T00:39:40;16.87;;;3.63;;
14116;SDS011;7137;51.436;6.544;2023-02-04T00:42:43;16.60;;;4.03;;
14116;SDS011;7137;51.436;6.544;2023-02-04T00:45:44;19.23;;;4.33;;
14116;SDS011;7137;51.436;6.544;2023-02-04T00:48:46;18.57;;;3.77;;
14116;SDS011;7137;51.436;6.544;2023-02-04T00:51:47;18.07;;;4.33;;
14116;SDS011;7137;51.436;6.544;2023-02-04T00:54:51;16.73;;;3.73;;
14116;SDS011;7137;51.436;6.544;2023-02-04T00:57:53;18.33;;;3.80;;
14116;SDS011;7137;51.436;6.544;2023-02-04T01:00:54;18.27;;;3.73;;
14116;SDS011;7137;51.436;6.544;2023-02-04T01:03:56;13.23;;;2.93;;
14116;SDS011;7137;51.436;6.544;2023-02-04T01:06:57;15.93;;;3.80;;
14116;SDS011;7137;51.436;6.544;2023-02-04T01:10:00;19.73;;;3.77;;
14116;SDS011;7137;51.436;6.544;2023-02-04T01:13:02;17.20;;;3.73;;
14116;SDS011;7137;51.436;6.544;2023-02-04T01:16:04;16.17;;;3.53;;
14116;SDS011;7137;51.436;6.544;2023-02-04T01:19:06;18.10;;;3.60;;
14116;SDS011;7137;51.436;6.544;2023-02-04T01:22:07;15.63;;;3.20;;
14116;SDS011;7137;51.436;6.544;2023-02-04T01:25:10;18.03;;;3.53;;
14116;SDS011;7137;51.436;6.544;2023-02-04T01:28:12;15.30;;;3.30;;
14116;SDS011;7137;51.436;6.544;2023-02-04T01:31:14;16.57;;;3.27;;
14116;SDS011;7137;51.436;6.544;2023-02-04T01:34:15;15.23;;;3.50;;
14116;SDS011;7137;51.436;6.544;2023-02-04T01:37:17;17.97;;;3.70;;
14116;SDS011;7137;51.436;6.544;2023-02-04T01:40:20;14.87;;;3.33;;
14116;SDS011;7137;51.436;6.544;2023-02-04T01:43:22;13.00;;;3.20;;
14116;SDS011;7137;51.436;6.544;2023-02-04T01:46:24;13.63;;;3.20;;
14116;SDS011;7137;51.436;6.544;2023-02-04T01:49:25;17.60;;;3.60;;
14116;SDS011;7137;51.436;6.544;2023-02-04T01:52:28;12.73;;;3.30;;
14116;SDS011;7137;51.436;6.544;2023-02-04T01:55:39;10.23;;;3.00;;
14116;SDS011;7137;51.436;6.544;2023-02-04T01:58:40;18.90;;;3.70;;
14116;SDS011;7137;51.436;6.544;2023-02-04T02:01:42;14.10;;;3.77;;
14116;SDS011;7137;51.436;6.544;2023-02-04T02:04:46;16.13;;;2.90;;
14116;SDS011;7137;51.436;6.544;2023-02-04T02:07:47;14.70;;;3.17;;
14116;SDS011;7137;51.436;6.544;2023-02-04T02:10:52;16.03;;;3.23;;
14116;SDS011;7137;51.436;6.544;2023-02-04T02:13:53;12.73;;;3.03;;
14116;SDS011;7137;51.436;6.544;2023-02-04T02:16:55;17.60;;;3.47;;
14116;SDS011;7137;51.436;6.544;2023-02-04T02:19:57;14.37;;;3.07;;
14116;SDS011;7137;51.436;6.544;2023-02-04T02:23:01;16.63;;;3.30;;
14116;SDS011;7137;51.436;6.544;2023-02-04T02:26:08;12.30;;;3.13;;
14116;SDS011;7137;51.436;6.544;2023-02-04T02:29:10;14.33;;;3.17;;
14116;SDS011;7137;51.436;6.544;2023-02-04T02:32:12;14.17;;;2.77;;
14116;SDS011;7137;51.436;6.544;2023-02-04T02:35:15;16.00;;;3.27;;
14116;SDS011;7137;51.436;6.544;2023-02-04T02:38:17;12.30;;;3.50;;
14116;SDS011;7137;51.436;6.544;2023-02-04T02:41:21;16.83;;;3.20;;
14116;SDS011;7137;51.436;6.544;2023-02-04T02:44:23;12.57;;;2.77;;
14116;SDS011;7137;51.436;6.544;2023-02-04T02:47:25;11.47;;;3.00;;
14116;SDS011;7137;51.436;6.544;2023-02-04T02:50:29;16.53;;;3.23;;
14116;SDS011;7137;51.436;6.544;2023-02-04T02:53:32;13.93;;;3.23;;
14116;SDS011;7137;51.436;6.544;2023-02-04T02:56:34;13.77;;;3.30;;
14116;SDS011;7137;51.436;6.544;2023-02-04T02:59:36;15.57;;;3.40;;
14116;SDS011;7137;51.436;6.544;2023-02-04T03:02:38;14.73;;;3.33;;
14116;SDS011;7137;51.436;6.544;2023-02-04T03:05:40;13.77;;;3.47;;
14116;SDS011;7137;51.436;6.544;2023-02-04T03:08:43;17.20;;;3.10;;
14116;SDS011;7137;51.436;6.544;2023-02-04T03:11:46;16.20;;;3.17;;
14116;SDS011;7137;51.436;6.544;2023-02-04T03:14:48;13.67;;;3.00;;
14116;SDS011;7137;51.436;6.544;2023-02-04T03:17:50;12.83;;;3.67;;
14116;SDS011;7137;51.436;6.544;2023-02-04T03:20:55;20.07;;;3.73;;
14116;SDS011;7137;51.436;6.544;2023-02-04T03:23:57;15.97;;;3.10;;
14116;SDS011;7137;51.436;6.544;2023-02-04T03:27:01;14.70;;;3.13;;
14116;SDS011;7137;51.436;6.544;2023-02-04T03:30:02;12.37;;;3.13;;
14116;SDS011;7137;51.436;6.544;2023-02-04T03:33:04;19.20;;;4.00;;
14116;SDS011;7137;51.436;6.544;2023-02-04T03:36:06;19.43;;;3.60;;
14116;SDS011;7137;51.436;6.544;2023-02-04T03:46:55;15.00;;;3.30;;
14116;SDS011;7137;51.436;6.544;2023-02-04T03:49:56;14.20;;;3.20;;
14116;SDS011;7137;51.436;6.544;2023-02-04T03:52:58;14.60;;;3.67;;
14116;SDS011;7137;51.436;6.544;2023-02-04T03:56:00;14.87;;;3.60;;
14116;SDS011;7137;51.436;6.544;2023-02-04T03:59:02;15.37;;;3.70;;
14116;SDS011;7137;51.436;6.544;2023-02-04T04:02:05;15.23;;;3.57;;
14116;SDS011;7137;51.436;6.544;2023-02-04T04:05:07;16.27;;;3.53;;
14116;SDS011;7137;51.436;6.544;2023-02-04T04:08:09;15.97;;;3.80;;
14116;SDS011;7137;51.436;6.544;2023-02-04T04:11:11;18.50;;;3.53;;
14116;SDS011;7137;51.436;6.544;2023-02-04T04:14:13;16.83;;;3.90;;
14116;SDS011;7137;51.436;6.544;2023-02-04T04:17:15;23.73;;;3.77;;
14116;SDS011;7137;51.436;6.544;2023-02-04T04:20:16;17.07;;;3.60;;
14116;SDS011;7137;51.436;6.544;2023-02-04T04:23:18;16.33;;;4.33;;
14116;SDS011;7137;51.436;6.544;2023-02-04T04:26:20;20.93;;;4.03;;
14116;SDS011;7137;51.436;6.544;2023-02-04T04:29:22;16.03;;;3.87;;
14116;SDS011;7137;51.436;6.544;2023-02-04T04:32:25;15.13;;;3.30;;
14116;SDS011;7137;51.436;6.544;2023-02-04T04:35:26;17.27;;;3.67;;
14116;SDS011;7137;51.436;6.544;2023-02-04T04:38:28;14.17;;;3.67;;
14116;SDS011;7137;51.436;6.544;2023-02-04T04:41:29;20.13;;;3.90;;
14116;SDS011;7137;51.436;6.544;2023-02-04T04:44:32;16.83;;;3.53;;
14116;SDS011;7137;51.436;6.544;2023-02-04T04:47:34;13.13;;;3.40;;
14116;SDS011;7137;51.436;6.544;2023-02-04T04:50:35;18.60;;;3.80;;
14116;SDS011;7137;51.436;6.544;2023-02-04T04:53:37;16.60;;;3.70;;
14116;SDS011;7137;51.436;6.544;2023-02-04T04:56:38;14.77;;;3.90;;
14116;SDS011;7137;51.436;6.544;2023-02-04T04:59:41;16.67;;;3.97;;
14116;SDS011;7137;51.436;6.544;2023-02-04T05:02:44;18.87;;;3.87;;
14116;SDS011;7137;51.436;6.544;2023-02-04T05:05:45;16.43;;;3.63;;
14116;SDS011;7137;51.436;6.544;2023-02-04T05:08:47;17.00;;;4.10;;
14116;SDS011;7137;51.436;6.544;2023-02-04T05:11:48;16.03;;;3.73;;
14116;SDS011;7137;51.436;6.544;2023-02-04T05:14:51;17.80;;;3.70;;
14116;SDS011;7137;51.436;6.544;2023-02-04T05:17:52;14.93;;;3.90;;
14116;SDS011;7137;51.436;6.544;2023-02-04T05:20:54;16.10;;;3.83;;
14116;SDS011;7137;51.436;6.544;2023-02-04T05:23:55;15.47;;;3.63;;
14116;SDS011;7137;51.436;6.544;2023-02-04T05:26:57;20.30;;;4.37;;
14116;SDS011;7137;51.436;6.544;2023-02-04T05:30:00;13.97;;;3.63;;
14116;SDS011;7137;51.436;6.544;2023-02-04T05:33:02;19.93;;;4.40;;
14116;SDS011;7137;51.436;6.544;2023-02-04T05:36:03;17.30;;;3.87;;
14116;SDS011;7137;51.436;6.544;2023-02-04T05:39:05;18.37;;;3.80;;
14116;SDS011;7137;51.436;6.544;2023-02-04T05:42:06;18.80;;;4.23;;
14116;SDS011;7137;51.436;6.544;2023-02-04T05:45:10;18.60;;;4.73;;
14116;SDS011;7137;51.436;6.544;2023-02-04T05:48:15;17.47;;;3.83;;
14116;SDS011;7137;51.436;6.544;2023-02-04T05:51:17;15.93;;;3.50;;
14116;SDS011;7137;51.436;6.544;2023-02-04T05:54:18;17.37;;;3.87;;
14116;SDS011;7137;51.436;6.544;2023-02-04T05:57:20;14.37;;;4.00;;
14116;SDS011;7137;51.436;6.544;2023-02-04T06:00:23;19.73;;;4.03;;
14116;SDS011;7137;51.436;6.544;2023-02-04T06:03:24;18.97;;;3.70;;
14116;SDS011;7137;51.436;6.544;2023-02-04T06:06:26;19.47;;;4.17;;
14116;SDS011;7137;51.436;6.544;2023-02-04T06:09:27;17.60;;;4.30;;
14116;SDS011;7137;51.436;6.544;2023-02-04T06:12:29;16.47;;;3.73;;
14116;SDS011;7137;51.436;6.544;2023-02-04T06:15:31;18.77;;;4.80;;
14116;SDS011;7137;51.436;6.544;2023-02-04T06:18:33;18.70;;;3.93;;
14116;SDS011;7137;51.436;6.544;2023-02-04T06:21:34;18.93;;;4.10;;
14116;SDS011;7137;51.436;6.544;2023-02-04T06:24:36;22.67;;;4.50;;
14116;SDS011;7137;51.436;6.544;2023-02-04T06:27:37;16.17;;;3.67;;
14116;SDS011;7137;51.436;6.544;2023-02-04T06:30:40;18.20;;;4.47;;
14116;SDS011;7137;51.436;6.544;2023-02-04T06:33:43;15.87;;;4.20;;
14116;SDS011;7137;51.436;6.544;2023-02-04T06:36:45;16.13;;;3.87;;
14116;SDS011;7137;51.436;6.544;2023-02-04T06:39:46;12.80;;;3.53;;
14116;SDS011;7137;51.436;6.544;2023-02-04T06:42:48;16.47;;;3.97;;
14116;SDS011;7137;51.436;6.544;2023-02-04T06:45:51;16.53;;;4.60;;
14116;SDS011;7137;51.436;6.544;2023-02-04T06:48:52;12.97;;;3.70;;
14116;SDS011;7137;51.436;6.544;2023-02-04T06:51:54;19.97;;;4.57;;
14116;SDS011;7137;51.436;6.544;2023-02-04T06:54:56;16.60;;;4.23;;
14116;SDS011;7137;51.436;6.544;2023-02-04T06:57:57;14.40;;;3.97;;
14116;SDS011;7137;51.436;6.544;2023-02-04T07:01:00;17.47;;;3.93;;
14116;SDS011;7137;51.436;6.544;2023-02-04T07:04:02;13.33;;;3.83;;
14116;SDS011;7137;51.436;6.544;2023-02-04T07:07:03;11.33;;;3.30;;
14116;SDS011;7137;51.436;6.544;2023-02-04T07:10:05;14.63;;;4.03;;
14116;SDS011;7137;51.436;6.544;2023-02-04T07:13:06;15.33;;;4.63;;
14116;SDS011;7137;51.436;6.544;2023-02-04T07:16:09;14.13;;;4.10;;
14116;SDS011;7137;51.436;6.544;2023-02-04T07:19:11;18.00;;;4.03;;
14116;SDS011;7137;51.436;6.544;2023-02-04T07:22:13;13.60;;;4.23;;
14116;SDS011;7137;51.436;6.544;2023-02-04T07:25:15;11.43;;;3.87;;
14116;SDS011;7137;51.436;6.544;2023-02-04T07:28:16;19.40;;;4.60;;
14116;SDS011;7137;51.436;6.544;2023-02-04T07:31:19;17.43;;;4.73;;
14116;SDS011;7137;51.436;6.544;2023-02-04T07:34:21;16.23;;;4.17;;
14116;SDS011;7137;51.436;6.544;2023-02-04T07:37:22;14.23;;;4.90;;
14116;SDS011;7137;51.436;6.544;2023-02-04T07:40:24;16.63;;;4.67;;
14116;SDS011;7137;51.436;6.544;2023-02-04T07:43:25;18.60;;;4.47;;
14116;SDS011;7137;51.436;6.544;2023-02-04T07:46:29;17.83;;;5.43;;
14116;SDS011;7137;51.436;6.544;2023-02-04T07:49:31;19.60;;;5.33;;
14116;SDS011;7137;51.436;6.544;2023-02-04T07:52:32;18.23;;;5.43;;
14116;SDS011;7137;51.436;6.544;2023-02-04T07:55:34;17.43;;;5.33;;
14116;SDS011;7137;51.436;6.544;2023-02-04T07:58:35;19.30;;;6.47;;
14116;SDS011;7137;51.436;6.544;2023-02-04T08:01:38;18.10;;;5.67;;
14116;SDS011;7137;51.436;6.544;2023-02-04T08:04:40;18.13;;;6.00;;
14116;SDS011;7137;51.436;6.544;2023-02-04T08:07:42;17.00;;;5.70;;
14116;SDS011;7137;51.436;6.544;2023-02-04T08:10:43;21.10;;;5.73;;
14116;SDS011;7137;51.436;6.544;2023-02-04T08:13:45;15.93;;;5.47;;
14116;SDS011;7137;51.436;6.544;2023-02-04T08:16:48;19.57;;;5.87;;
14116;SDS011;7137;51.436;6.544;2023-02-04T08:19:50;18.63;;;5.87;;
14116;SDS011;7137;51.436;6.544;2023-02-04T08:22:51;17.13;;;5.40;;
14116;SDS011;7137;51.436;6.544;2023-02-04T08:25:53;19.03;;;5.17;;
14116;SDS011;7137;51.436;6.544;2023-02-04T08:28:54;19.13;;;4.93;;
14116;SDS011;7137;51.436;6.544;2023-02-04T08:31:58;18.13;;;4.90;;
14116;SDS011;7137;51.436;6.544;2023-02-04T08:35:00;20.30;;;5.50;;
14116;SDS011;7137;51.436;6.544;2023-02-04T08:38:02;17.77;;;4.97;;
14116;SDS011;7137;51.436;6.544;2023-02-04T08:41:03;22.00;;;5.37;;
14116;SDS011;7137;51.436;6.544;2023-02-04T08:44:05;19.67;;;5.27;;
14116;SDS011;7137;51.436;6.544;2023-02-04T08:47:08;19.90;;;5.47;;
14116;SDS011;7137;51.436;6.544;2023-02-04T08:50:10;21.30;;;5.60;;
14116;SDS011;7137;51.436;6.544;2023-02-04T08:53:12;16.17;;;4.83;;
14116;SDS011;7137;51.436;6.544;2023-02-04T08:56:13;21.50;;;5.07;;
14116;SDS011;7137;51.436;6.544;2023-02-04T08:59:18;22.20;;;5.13;;
14116;SDS011;7137;51.436;6.544;2023-02-04T09:02:22;17.23;;;4.87;;
14116;SDS011;7137;51.436;6.544;2023-02-04T09:05:23;22.87;;;5.57;;
14116;SDS011;7137;51.436;6.544;2023-02-04T09:08:25;20.57;;;5.17;;
14116;SDS011;7137;51.436;6.544;2023-02-04T09:11:26;18.07;;;5.60;;
14116;SDS011;7137;51.436;6.544;2023-02-04T09:14:28;18.67;;;5.33;;
14116;SDS011;7137;51.436;6.544;2023-02-04T09:17:31;20.80;;;5.57;;
14116;SDS011;7137;51.436;6.544;2023-02-04T09:20:33;18.00;;;5.47;;
14116;SDS011;7137;51.436;6.544;2023-02-04T09:23:36;21.80;;;5.97;;
14116;SDS011;7137;51.436;6.544;2023-02-04T09:26:37;18.50;;;6.20;;
14116;SDS011;7137;51.436;6.544;2023-02-04T09:29:39;21.27;;;6.03;;
14116;SDS011;7137;51.436;6.544;2023-02-04T09:32:43;22.20;;;5.67;;
14116;SDS011;7137;51.436;6.544;2023-02-04T09:35:44;21.90;;;6.17;;
14116;SDS011;7137;51.436;6.544;2023-02-04T09:38:46;21.17;;;6.07;;
14116;SDS011;7137;51.436;6.544;2023-02-04T09:41:47;19.23;;;5.90;;
14116;SDS011;7137;51.436;6.544;2023-02-04T09:44:53;25.10;;;7.30;;
14116;SDS011;7137;51.436;6.544;2023-02-04T09:47:56;29.13;;;6.87;;
14116;SDS011;7137;51.436;6.544;2023-02-04T09:51:02;24.30;;;6.93;;
14116;SDS011;7137;51.436;6.544;2023-02-04T09:54:07;23.63;;;7.27;;
14116;SDS011;7137;51.436;6.544;2023-02-04T09:57:13;21.83;;;6.77;;
14116;SDS011;7137;51.436;6.544;2023-02-04T10:00:18;22.77;;;7.27;;
14116;SDS011;7137;51.436;6.544;2023-02-04T10:03:22;17.77;;;7.10;;
14116;SDS011;7137;51.436;6.544;2023-02-04T10:06:24;22.50;;;7.60;;
14116;SDS011;7137;51.436;6.544;2023-02-04T10:09:26;24.57;;;7.77;;
14116;SDS011;7137;51.436;6.544;2023-02-04T10:12:27;22.43;;;7.80;;
14116;SDS011;7137;51.436;6.544;2023-02-04T10:15:31;23.20;;;6.67;;
14116;SDS011;7137;51.436;6.544;2023-02-04T10:18:34;25.40;;;6.53;;
14116;SDS011;7137;51.436;6.544;2023-02-04T10:21:38;21.00;;;6.60;;
14116;SDS011;7137;51.436;6.544;2023-02-04T10:24:40;23.73;;;6.77;;
14116;SDS011;7137;51.436;6.544;2023-02-04T10:27:48;21.90;;;6.63;;
14116;SDS011;7137;51.436;6.544;2023-02-04T10:30:51;24.27;;;7.00;;
14116;SDS011;7137;51.436;6.544;2023-02-04T10:34:02;20.40;;;7.50;;
14116;SDS011;7137;51.436;6.544;2023-02-04T10:37:11;23.63;;;7.90;;
14116;SDS011;7137;51.436;6.544;2023-02-04T10:40:24;25.37;;;8.07;;
14116;SDS011;7137;51.436;6.544;2023-02-04T10:43:27;27.10;;;7.20;;
14116;SDS011;7137;51.436;6.544;2023-02-04T10:46:29;23.33;;;7.20;;
14116;SDS011;7137;51.436;6.544;2023-02-04T10:49:33;21.63;;;6.67;;
14116;SDS011;7137;51.436;6.544;2023-02-04T10:52:36;21.07;;;6.73;;
14116;SDS011;7137;51.436;6.544;2023-02-04T10:55:39;24.63;;;6.83;;
14116;SDS011;7137;51.436;6.544;2023-02-04T10:58:41;26.53;;;7.00;;
14116;SDS011;7137;51.436;6.544;2023-02-04T11:01:42;26.53;;;8.03;;
14116;SDS011;7137;51.436;6.544;2023-02-04T11:04:45;25.60;;;6.97;;
14116;SDS011;7137;51.436;6.544;2023-02-04T11:07:47;22.03;;;6.70;;
14116;SDS011;7137;51.436;6.544;2023-02-04T11:10:50;23.10;;;6.73;;
14116;SDS011;7137;51.436;6.544;2023-02-04T11:13:58;26.23;;;7.50;;
14116;SDS011;7137;51.436;6.544;2023-02-04T11:17:03;25.63;;;7.37;;
14116;SDS011;7137;51.436;6.544;2023-02-04T11:20:15;24.63;;;7.17;;
14116;SDS011;7137;51.436;6.544;2023-02-04T11:23:32;21.90;;;7.03;;
14116;SDS011;7137;51.436;6.544;2023-02-04T11:26:36;20.53;;;7.17;;
14116;SDS011;7137;51.436;6.544;2023-02-04T11:29:39;29.17;;;6.77;;
14116;SDS011;7137;51.436;6.544;2023-02-04T11:32:43;19.80;;;6.77;;
14116;SDS011;7137;51.436;6.544;2023-02-04T11:35:52;22.90;;;6.17;;
14116;SDS011;7137;51.436;6.544;2023-02-04T11:39:05;21.63;;;6.03;;
14116;SDS011;7137;51.436;6.544;2023-02-04T11:42:20;20.70;;;6.10;;
14116;SDS011;7137;51.436;6.544;2023-02-04T11:45:24;19.90;;;5.97;;
14116;SDS011;7137;51.436;6.544;2023-02-04T11:48:28;24.70;;;6.50;;
14116;SDS011;7137;51.436;6.544;2023-02-04T11:51:31;22.83;;;5.70;;
14116;SDS011;7137;51.436;6.544;2023-02-04T11:54:34;21.67;;;6.20;;
14116;SDS011;7137;51.436;6.544;2023-02-04T11:57:37;21.97;;;6.23;;
14116;SDS011;7137;51.436;6.544;2023-02-04T12:00:39;24.70;;;6.13;;
14116;SDS011;7137;51.436;6.544;2023-02-04T12:03:44;24.63;;;6.47;;
14116;SDS011;7137;51.436;6.544;2023-02-04T12:06:57;21.57;;;5.60;;
14116;SDS011;7137;51.436;6.544;2023-02-04T12:10:09;23.87;;;6.17;;
14116;SDS011;7137;51.436;6.544;2023-02-04T12:13:15;24.53;;;6.30;;
14116;SDS011;7137;51.436;6.544;2023-02-04T12:16:18;21.30;;;5.77;;
14116;SDS011;7137;51.436;6.544;2023-02-04T12:19:20;25.77;;;6.40;;
14116;SDS011;7137;51.436;6.544;2023-02-04T12:22:23;25.43;;;5.97;;
14116;SDS011;7137;51.436;6.544;2023-02-04T12:25:24;18.77;;;5.80;;
14116;SDS011;7137;51.436;6.544;2023-02-04T12:28:26;22.17;;;5.33;;
14116;SDS011;7137;51.436;6.544;2023-02-04T12:31:28;22.30;;;6.17;;
14116;SDS011;7137;51.436;6.544;2023-02-04T12:34:30;23.60;;;5.87;;
14116;SDS011;7137;51.436;6.544;2023-02-04T12:37:33;21.10;;;5.47;;
14116;SDS011;7137;51.436;6.544;2023-02-04T12:40:35;24.10;;;5.50;;
14116;SDS011;7137;51.436;6.544;2023-02-04T12:43:36;18.33;;;5.60;;
14116;SDS011;7137;51.436;6.544;2023-02-04T12:46:38;24.20;;;5.93;;
14116;SDS011;7137;51.436;6.544;2023-02-04T12:49:39;24.00;;;5.70;;
14116;SDS011;7137;51.436;6.544;2023-02-04T12:52:42;21.90;;;5.60;;
14116;SDS011;7137;51.436;6.544;2023-02-04T12:55:44;20.87;;;6.07;;
14116;SDS011;7137;51.436;6.544;2023-02-04T12:58:45;19.53;;;5.50;;
14116;SDS011;7137;51.436;6.544;2023-02-04T13:01:47;21.83;;;6.07;;
14116;SDS011;7137;51.436;6.544;2023-02-04T13:04:48;15.97;;;5.00;;
14116;SDS011;7137;51.436;6.544;2023-02-04T13:07:51;17.60;;;5.07;;
14116;SDS011;7137;51.436;6.544;2023-02-04T13:10:53;22.70;;;5.37;;
14116;SDS011;7137;51.436;6.544;2023-02-04T13:13:54;20.40;;;4.97;;
14116;SDS011;7137;51.436;6.544;2023-02-04T13:16:56;18.83;;;5.30;;
14116;SDS011;7137;51.436;6.544;2023-02-04T13:19:58;22.47;;;5.30;;
14116;SDS011;7137;51.436;6.544;2023-02-04T13:23:01;23.63;;;5.63;;
14116;SDS011;7137;51.436;6.544;2023-02-04T13:26:02;20.13;;;5.77;;
14116;SDS011;7137;51.436;6.544;2023-02-04T13:29:05;15.00;;;4.57;;
14116;SDS011;7137;51.436;6.544;2023-02-04T13:32:08;22.77;;;5.50;;
14116;SDS011;7137;51.436;6.544;2023-02-04T13:35:10;16.50;;;5.47;;
14116;SDS011;7137;51.436;6.544;2023-02-04T13:38:13;19.43;;;5.03;;
14116;SDS011;7137;51.436;6.544;2023-02-04T13:41:14;16.93;;;4.63;;
14116;SDS011;7137;51.436;6.544;2023-02-04T13:44:16;18.07;;;4.20;;
14116;SDS011;7137;51.436;6.544;2023-02-04T13:47:17;21.57;;;5.03;;
14116;SDS011;7137;51.436;6.544;2023-02-04T13:50:19;15.00;;;4.13;;
14116;SDS011;7137;51.436;6.544;2023-02-04T13:53:22;16.20;;;4.63;;
14116;SDS011;7137;51.436;6.544;2023-02-04T13:56:25;15.03;;;3.90;;
14116;SDS011;7137;51.436;6.544;2023-02-04T13:59:27;17.03;;;4.00;;
14116;SDS011;7137;51.436;6.544;2023-02-04T14:02:29;13.40;;;3.67;;
14116;SDS011;7137;51.436;6.544;2023-02-04T14:05:30;16.30;;;3.93;;
14116;SDS011;7137;51.436;6.544;2023-02-04T14:08:33;15.87;;;4.30;;
14116;SDS011;7137;51.436;6.544;2023-02-04T14:11:35;15.03;;;3.50;;
14116;SDS011;7137;51.436;6.544;2023-02-04T14:14:36;14.53;;;3.27;;
14116;SDS011;7137;51.436;6.544;2023-02-04T14:17:38;20.27;;;4.17;;
14116;SDS011;7137;51.436;6.544;2023-02-04T14:20:40;13.90;;;4.00;;
14116;SDS011;7137;51.436;6.544;2023-02-04T14:23:42;15.50;;;4.63;;
14116;SDS011;7137;51.436;6.544;2023-02-04T14:26:44;18.53;;;4.60;;
14116;SDS011;7137;51.436;6.544;2023-02-04T14:29:46;16.33;;;4.00;;
14116;SDS011;7137;51.436;6.544;2023-02-04T14:32:48;19.83;;;4.20;;
14116;SDS011;7137;51.436;6.544;2023-02-04T14:35:50;15.70;;;4.13;;
14116;SDS011;7137;51.436;6.544;2023-02-04T14:38:53;19.27;;;4.33;;
14116;SDS011;7137;51.436;6.544;2023-02-04T14:41:55;14.97;;;3.63;;
14116;SDS011;7137;51.436;6.544;2023-02-04T14:44:57;19.60;;;3.87;;
14116;SDS011;7137;51.436;6.544;2023-02-04T14:47:59;21.40;;;3.63;;
14116;SDS011;7137;51.436;6.544;2023-02-04T14:51:00;17.00;;;3.87;;
14116;SDS011;7137;51.436;6.544;2023-02-04T14:54:03;13.33;;;3.43;;
14116;SDS011;7137;51.436;6.544;2023-02-04T14:57:05;16.40;;;3.47;;
14116;SDS011;7137;51.436;6.544;2023-02-04T15:00:10;12.47;;;3.40;;
14116;SDS011;7137;51.436;6.544;2023-02-04T15:03:12;13.83;;;3.17;;
14116;SDS011;7137;51.436;6.544;2023-02-04T15:06:14;15.10;;;3.60;;
14116;SDS011;7137;51.436;6.544;2023-02-04T15:09:17;15.50;;;3.50;;
14116;SDS011;7137;51.436;6.544;2023-02-04T15:12:19;11.90;;;3.13;;
14116;SDS011;7137;51.436;6.544;2023-02-04T15:15:21;13.87;;;3.20;;
14116;SDS011;7137;51.436;6.544;2023-02-04T15:18:23;13.77;;;3.67;;
14116;SDS011;7137;51.436;6.544;2023-02-04T15:21:24;12.83;;;2.83;;
14116;SDS011;7137;51.436;6.544;2023-02-04T15:24:27;14.63;;;3.17;;
14116;SDS011;7137;51.436;6.544;2023-02-04T15:27:29;13.10;;;3.10;;
14116;SDS011;7137;51.436;6.544;2023-02-04T15:30:31;12.90;;;3.37;;
14116;SDS011;7137;51.436;6.544;2023-02-04T15:33:32;14.67;;;3.70;;
14116;SDS011;7137;51.436;6.544;2023-02-04T15:36:34;12.87;;;3.20;;
14116;SDS011;7137;51.436;6.544;2023-02-04T15:39:37;9.57;;;3.17;;
14116;SDS011;7137;51.436;6.544;2023-02-04T15:42:39;12.30;;;2.93;;
14116;SDS011;7137;51.436;6.544;2023-02-04T15:45:40;13.27;;;3.40;;
14116;SDS011;7137;51.436;6.544;2023-02-04T15:48:42;13.07;;;4.00;;
14116;SDS011;7137;51.436;6.544;2023-02-04T15:51:44;15.80;;;4.90;;
14116;SDS011;7137;51.436;6.544;2023-02-04T15:54:47;13.40;;;3.90;;
14116;SDS011;7137;51.436;6.544;2023-02-04T15:57:48;13.60;;;3.90;;
14116;SDS011;7137;51.436;6.544;2023-02-04T16:00:50;16.17;;;3.87;;
14116;SDS011;7137;51.436;6.544;2023-02-04T16:03:52;15.93;;;3.77;;
14116;SDS011;7137;51.436;6.544;2023-02-04T16:06:55;16.47;;;4.00;;
14116;SDS011;7137;51.436;6.544;2023-02-04T16:09:59;14.93;;;4.30;;
14116;SDS011;7137;51.436;6.544;2023-02-04T16:13:01;15.80;;;4.60;;
14116;SDS011;7137;51.436;6.544;2023-02-04T16:16:02;22.10;;;4.13;;
14116;SDS011;7137;51.436;6.544;2023-02-04T16:19:04;19.83;;;5.30;;
14116;SDS011;7137;51.436;6.544;2023-02-04T16:22:06;18.73;;;5.37;;
14116;SDS011;7137;51.436;6.544;2023-02-04T16:25:09;18.70;;;4.80;;
14116;SDS011;7137;51.436;6.544;2023-02-04T16:28:11;15.57;;;4.60;;
14116;SDS011;7137;51.436;6.544;2023-02-04T16:31:12;14.47;;;4.47;;
14116;SDS011;7137;51.436;6.544;2023-02-04T16:34:14;16.60;;;4.30;;
14116;SDS011;7137;51.436;6.544;2023-02-04T16:37:16;19.37;;;5.13;;
14116;SDS011;7137;51.436;6.544;2023-02-04T16:40:19;22.07;;;5.60;;
14116;SDS011;7137;51.436;6.544;2023-02-04T16:43:21;24.03;;;5.40;;
14116;SDS011;7137;51.436;6.544;2023-02-04T16:46:22;21.63;;;5.13;;
14116;SDS011;7137;51.436;6.544;2023-02-04T16:49:24;22.40;;;5.30;;
14116;SDS011;7137;51.436;6.544;2023-02-04T16:52:25;19.53;;;4.53;;
14116;SDS011;7137;51.436;6.544;2023-02-04T16:55:28;17.80;;;4.53;;
14116;SDS011;7137;51.436;6.544;2023-02-04T16:58:30;18.20;;;4.63;;
14116;SDS011;7137;51.436;6.544;2023-02-04T17:01:31;20.20;;;5.07;;
14116;SDS011;7137;51.436;6.544;2023-02-04T17:04:33;17.00;;;4.53;;
14116;SDS011;7137;51.436;6.544;2023-02-04T17:07:34;19.40;;;5.37;;
14116;SDS011;7137;51.436;6.544;2023-02-04T17:10:37;21.83;;;5.93;;
14116;SDS011;7137;51.436;6.544;2023-02-04T17:13:57;31.23;;;15.50;;
14116;SDS011;7137;51.436;6.544;2023-02-04T17:16:59;36.30;;;12.57;;
14116;SDS011;7137;51.436;6.544;2023-02-04T17:20:01;30.37;;;9.43;;
14116;SDS011;7137;51.436;6.544;2023-02-04T17:23:03;20.43;;;7.80;;
14116;SDS011;7137;51.436;6.544;2023-02-04T17:26:05;25.30;;;8.10;;
14116;SDS011;7137;51.436;6.544;2023-02-04T17:29:08;19.50;;;6.40;;
14116;SDS011;7137;51.436;6.544;2023-02-04T17:32:11;19.20;;;6.80;;
14116;SDS011;7137;51.436;6.544;2023-02-04T17:35:13;19.77;;;6.87;;
14116;SDS011;7137;51.436;6.544;2023-02-04T17:38:16;20.67;;;6.97;;
14116;SDS011;7137;51.436;6.544;2023-02-04T17:41:19;16.97;;;6.33;;
14116;SDS011;7137;51.436;6.544;2023-02-04T17:44:21;21.57;;;6.47;;
14116;SDS011;7137;51.436;6.544;2023-02-04T17:47:23;19.03;;;6.90;;
14116;SDS011;7137;51.436;6.544;2023-02-04T17:50:25;14.90;;;6.53;;
14116;SDS011;7137;51.436;6.544;2023-02-04T17:53:27;17.77;;;6.17;;
14116;SDS011;7137;51.436;6.544;2023-02-04T17:56:30;17.47;;;6.33;;
14116;SDS011;7137;51.436;6.544;2023-02-04T17:59:31;15.47;;;5.80;;
14116;SDS011;7137;51.436;6.544;2023-02-04T18:02:33;17.73;;;6.17;;
14116;SDS011;7137;51.436;6.544;2023-02-04T18:05:34;18.30;;;6.77;;
14116;SDS011;7137;51.436;6.544;2023-02-04T18:08:37;20.17;;;6.70;;
14116;SDS011;7137;51.436;6.544;2023-02-04T18:11:41;15.07;;;6.03;;
14116;SDS011;7137;51.436;6.544;2023-02-04T18:14:43;17.93;;;6.33;;
14116;SDS011;7137;51.436;6.544;2023-02-04T18:17:45;20.67;;;6.70;;
14116;SDS011;7137;51.436;6.544;2023-02-04T18:20:50;17.57;;;6.60;;
14116;SDS011;7137;51.436;6.544;2023-02-04T18:24:02;15.77;;;6.00;;
14116;SDS011;7137;51.436;6.544;2023-02-04T18:27:15;14.83;;;5.27;;